Terminal Aerodrome Forecast
Issued by NWS Cleveland, OH

Home | Current Version | Previous Version | Text Only | Print | Product List | Glossary Off
Versions: 1 2 3 4 5 6 7 8 9 10 11 12 13 14 15 16 17 18

000
FTUS41 KCLE 022300
TAFERI
TAF
KERI 022334Z 0300/0324 27008KT P6SM SCT030 BKN250
     FM030200 15005KT P6SM BKN200
     FM031000 15015KT P6SM BKN090
     FM031600 16020KT 6SM -SN SCT018 BKN025 OVC040
     FM031900 16020KT 5SM -FZRASN BKN018 OVC025
     FM032200 17020KT 2SM -RA BR OVC009=

USA.gov is the U.S. government's official web portal to all federal, state and local government web resources and services.